Terminal Aerodrome Forecast
Issued by NWS

Home | Current Version | Previous Version | Text Only | Print | Product List | Glossary On
Versions: 1 2 3 4 5 6 7 8 9 10 11 12 13 14 15 16 17 18 19 20 21 22 23 24 25 26 27
000
FTUS43 KDVN 290520
TAFCID
TAF
KCID 290520Z 2906/3006 17005KT 5SM BR VCSH BKN030
      TEMPO 2906/2909 3SM -RA BR BKN015
     FM290900 VRB02KT 3SM BR OVC015
      TEMPO 2910/2914 1 1/2SM BR OVC007
     FM291600 34006KT P6SM BKN025
     FM292100 36006KT P6SM SCT040=

USA.gov is the U.S. government's official web portal to all federal, state and local government web resources and services.